createdAt,value
2023-03-29T00:01:36.164Z,60.38
2023-03-29T00:04:39.059Z,58.38
2023-03-29T00:07:41.836Z,57.84
2023-03-29T00:10:43.801Z,55.25
2023-03-29T00:13:46.443Z,54.53
2023-03-29T00:16:48.905Z,55.15
2023-03-29T00:19:51.026Z,54.76
2023-03-29T00:22:52.933Z,55.38
2023-03-29T00:25:55.775Z,54.48
2023-03-29T00:28:57.637Z,54.52
2023-03-29T00:32:00.288Z,53.88
2023-03-29T00:35:02.395Z,53.98
2023-03-29T00:38:06.218Z,53.87
2023-03-29T00:41:09.197Z,53.81
2023-03-29T00:44:55.400Z,53.78
2023-03-29T00:48:03.012Z,52.52
2023-03-29T00:51:10.051Z,53.46
2023-03-29T00:54:18.748Z,53.07
2023-03-29T00:57:22.565Z,52.40
2023-03-29T01:00:31.820Z,52.32
2023-03-29T01:03:46.382Z,52.75
2023-03-29T01:07:06.412Z,52.28
2023-03-29T01:10:16.229Z,52.22
2023-03-29T01:13:27.295Z,51.93
2023-03-29T01:16:33.109Z,51.95
2023-03-29T01:19:42.310Z,51.97
2023-03-29T01:23:03.365Z,52.26
2023-03-29T01:26:23.020Z,53.33
2023-03-29T01:29:29.266Z,53.57
2023-03-29T01:32:42.228Z,53.77
2023-03-29T01:35:51.174Z,52.88
2023-03-29T01:38:57.081Z,54.18
2023-03-29T01:42:10.017Z,53.76
2023-03-29T01:45:27.015Z,54.45
2023-03-29T01:48:36.470Z,55.63
2023-03-29T01:51:48.325Z,57.60
2023-03-29T01:55:08.872Z,58.39
2023-03-29T01:58:13.454Z,58.79
2023-03-29T02:01:21.383Z,59.05
2023-03-29T02:04:30.559Z,59.11
2023-03-29T02:07:37.348Z,58.41
2023-03-29T02:10:39.866Z,58.97
2023-03-29T02:13:42.125Z,59.78
2023-03-29T02:16:46.349Z,61.81
2023-03-29T02:19:51.907Z,62.87
2023-03-29T02:23:08.910Z,63.23
2023-03-29T02:26:11.576Z,63.23
2023-03-29T02:29:14.134Z,64.78
2023-03-29T02:32:21.137Z,64.82
2023-03-29T02:35:53.342Z,65.24
2023-03-29T02:38:58.035Z,66.00
2023-03-29T02:42:03.049Z,67.00
2023-03-29T02:45:06.312Z,67.03
2023-03-29T02:48:12.551Z,68.24
2023-03-29T02:51:22.093Z,69.73
2023-03-29T02:54:29.969Z,69.82
2023-03-29T02:57:32.486Z,69.48
2023-03-29T03:00:38.344Z,70.04
2023-03-29T03:03:41.395Z,70.93
2023-03-29T03:06:43.463Z,70.81
2023-03-29T03:09:47.711Z,70.22
2023-03-29T03:12:49.978Z,69.85
2023-03-29T03:15:51.985Z,69.77
2023-03-29T03:18:55.763Z,69.11
2023-03-29T03:21:57.842Z,69.94
2023-03-29T03:24:59.753Z,68.86
2023-03-29T03:28:02.545Z,68.59
2023-03-29T03:31:05.426Z,68.88
2023-03-29T03:34:27.694Z,67.87
2023-03-29T03:37:34.947Z,69.23
2023-03-29T03:40:37.364Z,69.27
2023-03-29T03:43:42.438Z,68.28
2023-03-29T03:46:44.392Z,67.36
2023-03-29T03:49:46.635Z,67.51
2023-03-29T03:52:50.196Z,68.33
2023-03-29T03:55:55.945Z,68.50
2023-03-29T03:59:01.557Z,68.41
2023-03-29T04:02:08.125Z,67.48
2023-03-29T04:05:12.602Z,68.10
2023-03-29T04:08:15.137Z,68.34
2023-03-29T04:11:36.957Z,69.97
2023-03-29T04:14:40.427Z,69.89
2023-03-29T04:17:46.089Z,70.44
2023-03-29T04:20:59.636Z,70.41
2023-03-29T04:24:03.739Z,70.37
2023-03-29T04:27:08.815Z,70.41
2023-03-29T04:30:11.757Z,70.85
2023-03-29T04:33:35.158Z,70.33
2023-03-29T04:36:36.990Z,70.34
2023-03-29T04:39:42.439Z,69.62
2023-03-29T04:42:45.938Z,69.61
2023-03-29T04:45:48.046Z,68.31
2023-03-29T04:49:04.307Z,67.89
2023-03-29T04:52:10.457Z,67.69
2023-03-29T04:55:13.159Z,66.92
2023-03-29T04:58:31.632Z,68.42
2023-03-29T05:01:35.163Z,69.12
2023-03-29T05:04:37.237Z,68.71
2023-03-29T05:07:46.530Z,67.44
2023-03-29T05:10:50.859Z,67.82
2023-03-29T05:13:52.961Z,67.82
2023-03-29T05:16:56.259Z,66.87
2023-03-29T05:19:58.370Z,68.25
2023-03-29T05:23:01.492Z,67.28
2023-03-29T05:26:23.254Z,66.22
2023-03-29T05:29:28.434Z,65.33
2023-03-29T05:32:45.162Z,64.88
2023-03-29T05:35:58.164Z,64.08
2023-03-29T05:39:00.426Z,63.32
2023-03-29T05:42:04.599Z,62.41
2023-03-29T05:45:11.608Z,63.06
2023-03-29T05:48:15.067Z,62.28
2023-03-29T05:51:19.028Z,65.13
2023-03-29T05:54:21.089Z,65.38
2023-03-29T05:57:23.113Z,65.81
2023-03-29T06:00:25.805Z,62.78
2023-03-29T06:03:39.488Z,63.01
2023-03-29T06:06:42.078Z,59.85
2023-03-29T06:09:44.709Z,58.26
2023-03-29T06:12:47.731Z,57.92
2023-03-29T06:15:50.077Z,58.60
2023-03-29T06:18:54.232Z,53.91
2023-03-29T06:21:56.660Z,60.61
2023-03-29T06:25:02.566Z,60.77
2023-03-29T06:28:07.733Z,62.76
2023-03-29T06:31:11.041Z,61.63
2023-03-29T06:34:16.493Z,63.29
2023-03-29T06:37:35.570Z,61.64
2023-03-29T06:40:52.817Z,60.75
2023-03-29T06:43:58.358Z,58.81
2023-03-29T06:47:08.616Z,45.87
2023-03-29T06:50:11.757Z,42.65
2023-03-29T06:53:28.221Z,40.80
2023-03-29T06:56:35.202Z,40.72
2023-03-29T06:59:44.383Z,39.82
2023-03-29T07:02:54.955Z,40.26
2023-03-29T07:06:04.258Z,39.22
2023-03-29T07:09:09.014Z,38.22
2023-03-29T07:12:29.382Z,36.68
2023-03-29T07:15:36.114Z,40.56
2023-03-29T07:18:56.051Z,39.91
2023-03-29T07:42:58.964Z,36.92
2023-03-29T07:46:05.922Z,37.45
2023-03-29T07:49:10.433Z,36.78
2023-03-29T07:52:12.998Z,36.22
2023-03-29T07:55:18.806Z,37.88
2023-03-29T07:58:40.390Z,39.09
2023-03-29T08:01:42.961Z,38.05
2023-03-29T08:04:54.784Z,36.79
2023-03-29T08:08:17.232Z,36.93
2023-03-29T08:11:26.238Z,36.69
2023-03-29T08:14:33.449Z,36.80
2023-03-29T08:17:44.944Z,37.68
2023-03-29T08:20:47.432Z,37.10
2023-03-29T08:23:49.694Z,35.79
2023-03-29T08:26:59.102Z,40.53
2023-03-29T08:30:01.465Z,35.31
2023-03-29T08:33:03.917Z,36.43
2023-03-29T08:36:06.184Z,38.96
2023-03-29T08:39:12.325Z,38.13
2023-03-29T08:42:39.819Z,37.26
2023-03-29T08:45:44.849Z,37.25
2023-03-29T08:48:57.717Z,36.25
2023-03-29T08:52:05.282Z,36.11
2023-03-29T08:55:17.711Z,35.77
2023-03-29T08:58:40.562Z,36.33
2023-03-29T09:01:43.625Z,37.38
2023-03-29T09:04:48.495Z,35.80
2023-03-29T09:08:17.434Z,35.29
2023-03-29T09:11:44.833Z,38.54
2023-03-29T09:14:50.774Z,35.98
2023-03-29T09:18:14.085Z,36.76
2023-03-29T09:21:35.598Z,36.44
2023-03-29T09:25:05.973Z,37.99
2023-03-29T09:28:55.611Z,37.37
2023-03-29T09:31:59.186Z,37.29
2023-03-29T09:35:18.737Z,35.92
2023-03-29T09:38:23.000Z,36.11
2023-03-29T09:41:43.567Z,35.65
2023-03-29T09:44:53.584Z,36.59
2023-03-29T09:48:06.438Z,35.81
2023-03-29T09:51:11.445Z,36.89
2023-03-29T09:54:14.928Z,36.07
2023-03-29T09:57:46.225Z,37.51
2023-03-29T10:00:51.083Z,38.47
2023-03-29T10:03:54.080Z,36.82
2023-03-29T10:06:59.976Z,37.72
2023-03-29T10:10:02.029Z,37.23
2023-03-29T10:13:10.979Z,35.47
2023-03-29T10:16:25.875Z,34.58
2023-03-29T10:19:31.015Z,34.69
2023-03-29T10:22:37.640Z,39.54
2023-03-29T10:25:42.560Z,36.87
2023-03-29T10:28:45.423Z,34.18
2023-03-29T10:31:48.020Z,34.08
2023-03-29T10:34:52.056Z,32.74
2023-03-29T10:38:00.189Z,35.80
2023-03-29T10:41:12.920Z,32.63
2023-03-29T10:44:32.888Z,30.44
2023-03-29T10:47:35.442Z,31.92
2023-03-29T10:50:38.256Z,32.80
2023-03-29T10:53:41.126Z,35.28
2023-03-29T10:56:58.012Z,31.73
2023-03-29T11:00:23.671Z,30.47
2023-03-29T11:03:31.482Z,35.31
2023-03-29T11:06:57.352Z,36.60
2023-03-29T11:10:25.990Z,32.54
2023-03-29T11:13:37.452Z,29.92
2023-03-29T11:16:42.749Z,27.07
2023-03-29T11:20:05.205Z,28.24
2023-03-29T11:23:27.978Z,33.99
2023-03-29T11:26:33.085Z,33.11
2023-03-29T11:30:03.790Z,29.81
2023-03-29T11:33:16.650Z,31.63
2023-03-29T11:36:32.347Z,30.81
2023-03-29T11:39:48.038Z,29.18
2023-03-29T11:42:54.363Z,29.97
2023-03-29T11:46:02.501Z,27.76
2023-03-29T11:49:16.680Z,28.68
2023-03-29T11:52:25.678Z,28.58
2023-03-29T11:55:33.059Z,30.35
2023-03-29T11:58:40.952Z,30.89
2023-03-29T12:01:57.513Z,26.94
2023-03-29T12:05:07.530Z,26.58
2023-03-29T12:08:16.855Z,31.66
2023-03-29T12:11:19.044Z,29.54
2023-03-29T12:14:28.333Z,29.33
2023-03-29T12:17:39.399Z,27.29
2023-03-29T12:20:42.195Z,28.64
2023-03-29T12:23:48.099Z,29.36
2023-03-29T12:27:19.885Z,27.32
2023-03-29T12:30:27.816Z,30.99
2023-03-29T12:33:53.851Z,30.32
2023-03-29T12:37:38.771Z,28.60
2023-03-29T12:41:02.117Z,29.08
2023-03-29T12:44:28.054Z,27.51
2023-03-29T12:47:51.486Z,27.58
2023-03-29T12:51:01.792Z,30.60
2023-03-29T12:54:10.294Z,29.48
2023-03-29T12:57:25.624Z,31.01
2023-03-29T13:00:42.249Z,27.54
2023-03-29T13:03:50.419Z,28.66
2023-03-29T13:07:02.798Z,28.88
2023-03-29T13:10:31.452Z,30.54
2023-03-29T13:13:37.235Z,27.32
2023-03-29T13:16:41.670Z,27.77
2023-03-29T13:19:49.402Z,26.08
2023-03-29T13:23:02.375Z,27.49
2023-03-29T13:26:28.964Z,29.38
2023-03-29T13:29:55.876Z,27.07
2023-03-29T13:33:39.652Z,24.20
2023-03-29T13:36:58.607Z,24.59
2023-03-29T13:40:00.717Z,25.28
2023-03-29T13:43:19.162Z,23.77
2023-03-29T13:46:36.600Z,23.16
2023-03-29T13:49:42.429Z,25.64
2023-03-29T13:53:10.158Z,23.93
2023-03-29T13:56:19.714Z,24.99
2023-03-29T13:59:41.768Z,23.87
2023-03-29T14:02:49.546Z,25.59
2023-03-29T14:05:58.926Z,23.66
2023-03-29T14:09:06.392Z,24.92
2023-03-29T14:12:12.223Z,22.96
2023-03-29T14:15:36.399Z,22.94
2023-03-29T14:18:41.311Z,25.16
2023-03-29T14:21:44.370Z,24.17
2023-03-29T14:24:51.642Z,24.73
2023-03-29T14:27:53.638Z,23.42
2023-03-29T14:30:56.673Z,23.99
2023-03-29T14:34:04.614Z,25.25
2023-03-29T14:37:09.095Z,23.78
2023-03-29T14:40:21.212Z,24.38
2023-03-29T14:43:24.235Z,23.95
2023-03-29T14:46:27.399Z,24.77
2023-03-29T14:49:30.147Z,22.99
2023-03-29T14:52:33.505Z,23.70
2023-03-29T14:55:36.587Z,23.90
2023-03-29T14:58:40.183Z,24.03
2023-03-29T15:01:44.598Z,23.38
2023-03-29T15:04:55.692Z,26.26
2023-03-29T15:07:57.834Z,27.67
2023-03-29T15:11:00.169Z,27.32
2023-03-29T15:14:08.802Z,26.04
2023-03-29T15:17:50.921Z,25.45
2023-03-29T15:20:54.626Z,27.61
2023-03-29T15:23:58.550Z,26.59
2023-03-29T15:27:12.376Z,26.79
2023-03-29T15:30:17.578Z,27.53
2023-03-29T15:33:23.056Z,29.63
2023-03-29T15:36:25.049Z,29.43
2023-03-29T15:39:28.800Z,29.44
2023-03-29T15:42:31.525Z,28.91
2023-03-29T15:45:33.484Z,30.10
2023-03-29T15:48:35.363Z,30.34
2023-03-29T15:51:37.472Z,31.22
2023-03-29T15:54:39.458Z,33.52
2023-03-29T15:57:46.460Z,34.77
2023-03-29T16:00:53.859Z,35.03
2023-03-29T16:03:57.890Z,36.64
2023-03-29T16:07:01.340Z,36.17
2023-03-29T16:10:03.945Z,36.99
2023-03-29T16:13:06.465Z,37.32
2023-03-29T16:16:10.744Z,37.79
2023-03-29T16:19:13.042Z,38.79
2023-03-29T16:22:14.910Z,38.61
2023-03-29T16:25:19.297Z,40.12
2023-03-29T16:28:21.767Z,39.96
2023-03-29T16:31:25.882Z,40.74
2023-03-29T16:34:28.595Z,40.19
2023-03-29T16:37:30.446Z,39.45
2023-03-29T16:40:33.323Z,39.82
2023-03-29T16:43:38.576Z,40.98
2023-03-29T16:46:41.611Z,42.15
2023-03-29T16:49:45.316Z,42.46
2023-03-29T16:52:49.009Z,43.21
2023-03-29T16:55:51.005Z,44.03
2023-03-29T16:58:52.918Z,43.00
2023-03-29T17:01:54.937Z,41.25
2023-03-29T17:04:57.726Z,39.86
2023-03-29T17:07:59.655Z,38.97
2023-03-29T17:11:03.111Z,40.37
2023-03-29T17:14:05.133Z,40.44
2023-03-29T17:17:06.986Z,41.59
2023-03-29T17:20:12.360Z,40.86
2023-03-29T17:23:14.367Z,41.70
2023-03-29T17:26:16.227Z,42.80
2023-03-29T17:29:18.172Z,41.93
2023-03-29T17:32:20.497Z,40.88
2023-03-29T17:35:22.679Z,42.65
2023-03-29T17:38:26.759Z,41.32
2023-03-29T17:41:30.785Z,40.86
2023-03-29T17:44:34.780Z,41.26
2023-03-29T17:47:37.602Z,40.40
2023-03-29T17:50:39.863Z,41.59
2023-03-29T17:53:41.997Z,41.37
2023-03-29T17:56:43.977Z,41.88
2023-03-29T17:59:46.210Z,40.32
2023-03-29T18:02:48.425Z,39.07
2023-03-29T18:05:51.259Z,40.65
2023-03-29T18:08:53.530Z,40.18
2023-03-29T18:11:55.604Z,39.94
2023-03-29T18:14:57.800Z,40.43
2023-03-29T18:18:00.089Z,40.85
2023-03-29T18:21:02.348Z,41.97
2023-03-29T18:24:04.311Z,41.00
2023-03-29T18:27:06.649Z,40.32
2023-03-29T18:30:09.440Z,40.24
2023-03-29T18:33:11.864Z,41.38
2023-03-29T18:36:14.570Z,39.92
2023-03-29T18:39:16.911Z,41.30
2023-03-29T18:42:21.956Z,41.49
2023-03-29T18:45:24.093Z,43.67
2023-03-29T18:48:26.539Z,44.25
2023-03-29T18:51:29.345Z,44.25
2023-03-29T18:54:31.828Z,44.47
2023-03-29T18:57:34.200Z,43.83
2023-03-29T19:00:37.355Z,44.74
2023-03-29T19:03:40.103Z,45.62
2023-03-29T19:06:42.610Z,45.23
2023-03-29T19:09:45.316Z,46.44
2023-03-29T19:12:47.517Z,46.54
2023-03-29T19:15:51.833Z,46.57
2023-03-29T19:18:54.319Z,46.95
2023-03-29T19:21:58.336Z,46.26
2023-03-29T19:25:04.675Z,46.66
2023-03-29T19:28:06.997Z,46.41
2023-03-29T19:31:10.228Z,47.04
2023-03-29T19:34:13.507Z,46.72
2023-03-29T19:37:17.622Z,47.93
2023-03-29T19:40:20.154Z,49.33
2023-03-29T19:43:22.329Z,49.81
2023-03-29T19:46:24.685Z,49.18
2023-03-29T19:49:26.779Z,48.39
2023-03-29T19:52:30.487Z,48.50
2023-03-29T19:55:32.534Z,48.61
2023-03-29T19:58:35.004Z,48.84
2023-03-29T20:01:39.451Z,48.17
2023-03-29T20:04:41.651Z,49.58
2023-03-29T20:07:44.560Z,48.20
2023-03-29T20:10:46.435Z,49.65
2023-03-29T20:13:48.782Z,50.20
2023-03-29T20:16:51.107Z,50.98
2023-03-29T20:19:53.988Z,49.83
2023-03-29T20:23:04.640Z,50.01
2023-03-29T20:26:08.425Z,49.63
2023-03-29T20:29:10.347Z,48.50
2023-03-29T20:32:12.514Z,50.49
2023-03-29T20:35:14.567Z,51.39
2023-03-29T20:38:16.480Z,49.79
2023-03-29T20:41:21.265Z,50.30
2023-03-29T20:44:28.350Z,49.96
2023-03-29T20:47:30.341Z,49.90
2023-03-29T20:50:32.389Z,52.65
2023-03-29T20:53:34.293Z,51.75
2023-03-29T20:56:39.831Z,51.20
2023-03-29T20:59:45.766Z,52.78
2023-03-29T21:02:47.804Z,53.51
2023-03-29T21:05:54.240Z,53.82
2023-03-29T21:08:57.470Z,53.54
2023-03-29T21:11:59.832Z,53.03
2023-03-29T21:15:02.406Z,51.96
2023-03-29T21:18:04.658Z,52.94
2023-03-29T21:21:08.060Z,54.83
2023-03-29T21:24:13.136Z,53.11
2023-03-29T21:27:15.049Z,53.61
2023-03-29T21:30:17.123Z,55.82
2023-03-29T21:33:19.078Z,54.68
2023-03-29T21:36:20.992Z,56.20
2023-03-29T21:39:26.067Z,57.61
2023-03-29T21:42:28.382Z,56.20
2023-03-29T21:45:30.606Z,57.56
2023-03-29T21:48:32.862Z,56.12
2023-03-29T21:51:35.374Z,54.38
2023-03-29T21:54:37.236Z,55.75
2023-03-29T21:57:39.077Z,56.72
2023-03-29T22:00:41.632Z,55.60
2023-03-29T22:03:44.322Z,57.42
2023-03-29T22:06:46.369Z,56.43
2023-03-29T22:09:48.440Z,55.87
2023-03-29T22:12:51.421Z,57.42
2023-03-29T22:16:03.620Z,56.36
2023-03-29T22:19:06.419Z,55.97
2023-03-29T22:22:13.372Z,55.43
2023-03-29T22:25:17.572Z,58.92
2023-03-29T22:28:19.531Z,57.96
2023-03-29T22:31:23.529Z,58.34
2023-03-29T22:34:25.695Z,59.45
2023-03-29T22:37:27.519Z,57.78
2023-03-29T22:40:33.128Z,57.94
2023-03-29T22:43:36.486Z,58.43
2023-03-29T22:46:38.581Z,58.16
2023-03-29T22:49:40.586Z,59.30
2023-03-29T22:52:42.475Z,59.00
2023-03-29T22:55:45.862Z,58.88
2023-03-29T22:58:47.964Z,59.73
2023-03-29T23:01:50.075Z,59.36
2023-03-29T23:04:52.191Z,58.78
2023-03-29T23:07:55.759Z,58.75
2023-03-29T23:10:58.384Z,60.43
2023-03-29T23:14:03.991Z,60.29
2023-03-29T23:17:06.114Z,61.03
2023-03-29T23:20:11.047Z,61.10
2023-03-29T23:23:13.212Z,61.13
2023-03-29T23:26:15.892Z,62.63
2023-03-29T23:29:17.930Z,61.68
2023-03-29T23:32:20.528Z,60.97
2023-03-29T23:35:22.461Z,59.95
2023-03-29T23:38:24.658Z,60.93
2023-03-29T23:41:30.744Z,61.86
2023-03-29T23:44:32.740Z,61.96
2023-03-29T23:47:35.479Z,62.56
2023-03-29T23:50:37.487Z,62.70
2023-03-29T23:53:39.639Z,63.77
2023-03-29T23:56:41.542Z,63.66
2023-03-29T23:59:43.501Z,63.74
